ěÝzenÝ letovÚho provozu ╚eskÚ republiky
Letiste: LKMT Aktualizace: 26.11.2022 20:04:32  UTC
 METAR LKMT 26.11. 20:00 RRA
METAR LKMT 262000Z 01003KT 9999 OVC030 05/04 Q1029 NOSIG=
 TAF LKMT 26.11. 17:00 ...
TAF LKMT 261700Z 2618/2800 23005KT 5000 BR OVC018      BECMG 2619/2621 VRB02KT 2500 BR OVC007      TEMPO 2621/2709 1100 -DZ BR BKN003      BECMG 2709/2711 6000 BKN013      TEMPO 2711/2719 FEW020      BECMG 2719/2721 0700 FZFG OVC002      TEMPO 2721/2800 0300 FZFG VV001=